Time;durP1;ratioP1;P1;durP2;ratioP2;P2;SDS_P1;SDS_P2;PMS_P1;PMS_P2;Temp;Humidity;BMP_temperature;BMP_pressure;BME280_temperature;BME280_humidity;BME280_pressure;Samples;Min_cycle;Max_cycle;Signal;HPM_P1;HPM_P2
2023/05/26 00:01:52;;;;;;;14.60;4.10;;;;;;;9.84;100.00;103101.94;5066163;28;20193;-65
2023/05/26 00:04:18;;;;;;;17.80;4.70;;;;;;;9.55;100.00;103086.63;5065034;28;20637;-65
2023/05/26 00:06:52;;;;;;;21.20;4.53;;;;;;;9.37;100.00;103037.38;5047515;28;20517;-65
2023/05/26 00:09:21;;;;;;;14.97;3.90;;;;;;;9.36;100.00;103049.06;5068088;28;20261;-65
2023/05/26 00:11:46;;;;;;;15.40;5.37;;;;;;;9.96;100.00;103130.31;5063541;28;20466;-65
2023/05/26 00:14:14;;;;;;;15.20;4.40;;;;;;;9.94;100.00;103137.63;5066411;28;20926;-65
2023/05/26 00:16:40;;;;;;;14.30;4.63;;;;;;;9.85;100.00;103131.25;5047990;28;20179;-65
2023/05/26 00:19:07;;;;;;;13.07;3.80;;;;;;;9.76;100.00;103144.66;5067715;28;20812;-65
2023/05/26 00:21:33;;;;;;;17.00;5.07;;;;;;;9.60;100.00;103129.91;5066599;28;20437;-65
2023/05/26 00:23:59;;;;;;;24.00;4.77;;;;;;;8.79;100.00;103003.19;5065816;28;20476;-65
2023/05/26 00:26:25;;;;;;;12.27;4.30;;;;;;;9.48;100.00;103107.75;5066349;28;20472;-65
2023/05/26 00:28:51;;;;;;;14.97;5.63;;;;;;;9.05;100.00;103068.72;5065198;28;20294;-65
2023/05/26 00:31:16;;;;;;;16.33;4.73;;;;;;;9.63;100.00;103147.56;5064570;28;20926;-65
2023/05/26 00:33:42;;;;;;;13.33;4.80;;;;;;;9.61;100.00;103157.59;5068782;28;20183;-65
2023/05/26 00:36:07;;;;;;;17.80;6.10;;;;;;;9.05;100.00;103055.31;5065761;28;20225;-65
2023/05/26 00:38:33;;;;;;;18.07;4.73;;;;;;;9.55;100.00;103172.38;5066138;28;20210;-65
2023/05/26 00:40:58;;;;;;;17.87;5.33;;;;;;;9.64;100.00;103158.16;5065215;28;20262;-65
2023/05/26 00:43:24;;;;;;;22.50;5.37;;;;;;;9.56;100.00;103155.31;5063090;28;20282;-65
2023/05/26 00:45:49;;;;;;;14.07;4.47;;;;;;;9.59;100.00;103162.22;5065342;28;20268;-65
2023/05/26 00:48:15;;;;;;;15.00;4.13;;;;;;;9.28;100.00;103128.25;5063549;28;20206;-65
2023/05/26 00:50:41;;;;;;;17.90;5.10;;;;;;;9.56;100.00;103157.97;5068129;28;20191;-65
2023/05/26 00:53:08;;;;;;;19.00;5.13;;;;;;;9.51;100.00;103166.41;5049106;28;20221;-65
2023/05/26 00:55:33;;;;;;;17.43;4.37;;;;;;;9.38;100.00;103164.97;5067814;28;20437;-65
2023/05/26 00:57:59;;;;;;;13.20;3.20;;;;;;;9.22;100.00;103133.31;5064003;28;20977;-65
2023/05/26 01:00:26;;;;;;;17.27;4.70;;;;;;;9.07;100.00;103166.78;5064637;28;20432;-65
2023/05/26 01:02:56;;;;;;;17.80;4.00;;;;;;;9.52;100.00;103169.97;5066007;28;20535;-65
2023/05/26 01:05:22;;;;;;;17.50;4.40;;;;;;;9.43;100.00;103168.06;5065443;28;20436;-65
2023/05/26 01:07:47;;;;;;;17.63;5.00;;;;;;;9.10;100.00;103131.69;5064795;28;20992;-65
2023/05/26 01:10:13;;;;;;;14.10;4.53;;;;;;;9.39;100.00;103172.00;5064729;28;20201;-65
2023/05/26 01:12:45;;;;;;;15.20;4.40;;;;;;;9.44;100.00;103185.84;5066815;28;20687;-67
2023/05/26 01:15:15;;;;;;;24.27;4.53;;;;;;;9.14;100.00;103142.03;5064878;28;20206;-65
2023/05/26 01:18:10;;;;;;;20.53;4.87;;;;;;;9.63;100.00;103167.19;5065518;28;20462;-65
2023/05/26 01:20:53;;;;;;;18.03;4.67;;;;;;;9.59;100.00;103178.31;5064100;28;20808;-65
2023/05/26 01:23:47;;;;;;;18.83;4.80;;;;;;;9.45;100.00;103168.78;5066354;28;20429;-65
2023/05/26 01:26:30;;;;;;;18.03;4.80;;;;;;;9.54;100.00;103170.66;5063676;28;20801;-65
2023/05/26 01:29:01;;;;;;;14.47;4.10;;;;;;;9.50;100.00;103174.59;5046639;28;21240;-65
2023/05/26 01:31:26;;;;;;;19.87;5.40;;;;;;;9.38;100.00;103156.94;5065345;28;20473;-65
2023/05/26 01:33:52;;;;;;;14.70;5.37;;;;;;;9.69;100.00;103157.72;5064252;28;20923;-65
2023/05/26 01:36:17;;;;;;;20.23;4.93;;;;;;;9.28;100.00;103136.28;5065918;28;20187;-66
2023/05/26 01:38:43;;;;;;;19.70;5.00;;;;;;;8.94;100.00;103097.34;5066327;28;20613;-65
2023/05/26 01:41:26;;;;;;;13.70;4.30;;;;;;;9.27;100.00;103153.34;5066373;28;20610;-64
2023/05/26 01:43:59;;;;;;;14.53;3.97;;;;;;;9.03;100.00;103142.94;5065428;28;20175;-65
2023/05/26 01:46:29;;;;;;;15.83;5.10;;;;;;;9.34;100.00;103158.16;5064755;28;20444;-65
2023/05/26 01:48:58;;;;;;;12.10;4.63;;;;;;;9.63;100.00;103169.00;5064246;28;20462;-65
2023/05/26 01:51:26;;;;;;;13.63;4.60;;;;;;;9.13;100.00;103129.59;5066789;28;20453;-65
2023/05/26 01:53:55;;;;;;;13.63;4.23;;;;;;;9.36;100.00;103173.13;5065916;28;20441;-65
2023/05/26 01:56:21;;;;;;;12.07;4.33;;;;;;;9.21;100.00;103190.53;5065341;28;20468;-65
2023/05/26 01:58:48;;;;;;;16.73;4.63;;;;;;;9.12;100.00;103152.00;5062485;28;20607;-65
2023/05/26 02:01:13;;;;;;;20.37;4.60;;;;;;;8.92;100.00;103136.81;5065701;28;20429;-67
2023/05/26 02:03:39;;;;;;;16.37;5.60;;;;;;;9.39;100.00;103194.28;5068739;28;20959;-65
2023/05/26 02:06:04;;;;;;;13.20;4.20;;;;;;;9.20;100.00;103184.31;5068478;28;20179;-65
2023/05/26 02:08:29;;;;;;;14.63;4.57;;;;;;;9.21;100.00;103196.72;5069189;28;20267;-65
2023/05/26 02:10:55;;;;;;;14.83;4.63;;;;;;;9.27;100.00;103196.19;5068585;28;20693;-65
2023/05/26 02:13:20;;;;;;;15.00;3.97;;;;;;;9.25;100.00;103192.78;5068858;28;20183;-65
2023/05/26 02:15:46;;;;;;;14.90;4.80;;;;;;;9.38;100.00;103207.81;5067988;28;20190;-66
2023/05/26 02:18:11;;;;;;;14.03;4.20;;;;;;;8.88;100.00;103159.44;5068702;28;20642;-65
2023/05/26 02:20:37;;;;;;;13.43;4.77;;;;;;;9.00;100.00;103179.84;5068055;28;20730;-65
2023/05/26 02:23:02;;;;;;;19.50;4.80;;;;;;;8.83;100.00;103165.22;5068670;28;20183;-65
2023/05/26 02:25:28;;;;;;;12.00;3.80;;;;;;;9.17;100.00;103200.66;5067913;28;20206;-66
2023/05/26 02:27:53;;;;;;;13.57;4.60;;;;;;;9.02;100.00;103178.69;5050736;28;20272;-66
2023/05/26 02:30:19;;;;;;;18.67;4.70;;;;;;;9.15;100.00;103213.31;5069341;28;20203;-65
2023/05/26 02:32:45;;;;;;;17.60;5.10;;;;;;;9.18;100.00;103213.06;5067884;28;20175;-65
2023/05/26 02:35:10;;;;;;;18.30;4.50;;;;;;;8.87;100.00;103158.59;5069866;28;20207;-65
2023/05/26 02:37:36;;;;;;;14.73;4.63;;;;;;;9.11;100.00;103214.53;5054277;28;20997;-66
2023/05/26 02:40:04;;;;;;;16.40;4.70;;;;;;;8.67;100.00;103141.56;5068991;28;20271;-65
2023/05/26 02:42:30;;;;;;;17.70;5.10;;;;;;;8.73;100.00;103196.38;5054615;28;20175;-65
2023/05/26 02:44:55;;;;;;;17.37;5.03;;;;;;;8.83;100.00;103214.22;5071809;28;20981;-65
2023/05/26 02:47:20;;;;;;;15.37;4.50;;;;;;;8.87;100.00;103209.47;5054461;28;20731;-65
2023/05/26 02:49:46;;;;;;;14.40;4.43;;;;;;;8.85;100.00;103199.84;5069184;28;20201;-66
2023/05/26 02:52:11;;;;;;;14.77;4.63;;;;;;;8.62;100.00;103169.69;5071593;28;20187;-65
2023/05/26 02:54:37;;;;;;;14.67;4.60;;;;;;;8.66;100.00;103160.44;5070133;28;20314;-65
2023/05/26 02:57:02;;;;;;;19.20;4.87;;;;;;;8.53;100.00;103152.59;5067206;28;20187;-65
2023/05/26 02:59:28;;;;;;;17.07;4.40;;;;;;;8.73;100.00;103172.31;5051083;28;20207;-65
2023/05/26 03:01:53;;;;;;;15.57;4.47;;;;;;;8.93;100.00;103219.63;5067980;28;20209;-65
2023/05/26 03:04:19;;;;;;;14.40;4.53;;;;;;;9.01;100.00;103237.75;5067416;28;20227;-65
2023/05/26 03:06:44;;;;;;;16.60;4.63;;;;;;;8.38;100.00;103142.19;5066441;28;20178;-65
2023/05/26 03:09:10;;;;;;;10.90;4.33;;;;;;;8.99;100.00;103234.34;5068934;28;20211;-66
2023/05/26 03:11:35;;;;;;;16.70;4.40;;;;;;;9.06;100.00;103232.84;5049541;28;20215;-65
2023/05/26 03:14:00;;;;;;;13.80;4.63;;;;;;;9.00;100.00;103239.56;5068707;28;20192;-65
2023/05/26 03:16:27;;;;;;;13.10;5.17;;;;;;;8.69;100.00;103197.63;5066957;28;20179;-65
2023/05/26 03:18:52;;;;;;;17.47;4.90;;;;;;;8.74;100.00;103192.75;5067915;28;20227;-65
2023/05/26 03:21:19;;;;;;;14.10;4.63;;;;;;;8.85;100.00;103227.47;5065999;28;20469;-65
2023/05/26 03:23:44;;;;;;;12.83;4.50;;;;;;;8.08;100.00;103108.13;5065472;28;20183;-65
2023/05/26 03:26:10;;;;;;;20.17;4.30;;;;;;;9.01;100.00;103221.69;5066226;28;20853;-65
2023/05/26 03:28:36;;;;;;;13.93;4.30;;;;;;;8.88;100.00;103231.72;5048245;28;20204;-65
2023/05/26 03:31:01;;;;;;;15.30;3.93;;;;;;;8.34;100.00;103151.44;5068129;28;20459;-65
2023/05/26 03:33:28;;;;;;;15.80;4.60;;;;;;;8.83;100.00;103227.63;5063929;28;20279;-65
2023/05/26 03:35:54;;;;;;;17.27;4.43;;;;;;;8.32;100.00;103157.88;5066454;28;20189;-65
2023/05/26 03:38:19;;;;;;;15.60;4.17;;;;;;;9.05;100.00;103231.13;5063779;28;20461;-65
2023/05/26 03:40:45;;;;;;;16.20;4.90;;;;;;;8.95;100.00;103224.88;5064348;28;20179;-65
2023/05/26 03:43:10;;;;;;;13.37;4.17;;;;;;;8.66;100.00;103192.56;5061259;28;20571;-65
2023/05/26 03:45:36;;;;;;;14.23;4.50;;;;;;;8.32;100.00;103161.38;5062242;28;20254;-65
2023/05/26 03:48:02;;;;;;;14.00;3.90;;;;;;;8.99;100.00;103247.72;5065857;28;20219;-65
2023/05/26 03:50:28;;;;;;;13.37;4.50;;;;;;;9.07;100.00;103247.94;5049413;28;20285;-65
2023/05/26 03:52:53;;;;;;;14.03;4.07;;;;;;;8.92;100.00;103236.69;5066997;28;20445;-65
2023/05/26 03:55:19;;;;;;;13.00;4.47;;;;;;;8.78;100.00;103235.16;5068178;28;20182;-65
2023/05/26 03:57:45;;;;;;;13.70;4.63;;;;;;;8.74;100.00;103224.88;5051187;28;20203;-65
2023/05/26 04:00:11;;;;;;;13.40;4.03;;;;;;;8.87;100.00;103238.06;5070387;28;20619;-65
2023/05/26 04:02:37;;;;;;;13.23;4.17;;;;;;;8.71;100.00;103219.78;5070398;28;20472;-65
2023/05/26 04:05:03;;;;;;;15.17;4.20;;;;;;;9.02;100.00;103255.50;5070166;28;20556;-65
2023/05/26 04:07:28;;;;;;;17.53;4.90;;;;;;;8.76;100.00;103261.19;5063456;28;20235;-65
2023/05/26 04:09:54;;;;;;;12.83;4.20;;;;;;;9.08;100.00;103259.47;5069066;28;20889;-65
2023/05/26 04:12:20;;;;;;;17.40;4.40;;;;;;;8.45;100.00;103168.44;5070236;28;20183;-65
2023/05/26 04:14:45;;;;;;;13.53;4.37;;;;;;;8.19;100.00;103150.03;5066323;28;20195;-65
2023/05/26 04:17:10;;;;;;;16.53;4.60;;;;;;;8.90;100.00;103229.78;5069523;28;20199;-65
2023/05/26 04:19:36;;;;;;;14.53;4.27;;;;;;;9.31;100.00;103276.28;5069935;28;20187;-66
2023/05/26 04:22:01;;;;;;;15.70;5.57;;;;;;;9.17;100.00;103269.41;5070888;28;20236;-65
2023/05/26 04:24:27;;;;;;;23.47;5.50;;;;;;;9.09;100.00;103251.34;5065309;28;20197;-65
2023/05/26 04:26:52;;;;;;;20.83;4.53;;;;;;;8.86;100.00;103223.00;5066405;28;20672;-65
2023/05/26 04:29:20;;;;;;;14.00;4.63;;;;;;;8.86;100.00;103206.94;5063896;28;20578;-65
2023/05/26 04:31:46;;;;;;;13.07;4.90;;;;;;;9.47;100.00;103280.19;5066531;28;20222;-65
2023/05/26 04:34:11;;;;;;;12.77;4.90;;;;;;;9.36;100.00;103264.19;5065414;28;20732;-65
2023/05/26 04:36:39;;;;;;;19.47;5.20;;;;;;;9.52;100.00;103277.13;5065100;28;20956;-68
2023/05/26 04:39:06;;;;;;;21.47;5.40;;;;;;;9.45;100.00;103274.09;5066055;28;20699;-65
2023/05/26 04:41:32;;;;;;;21.97;6.00;;;;;;;9.26;100.00;103247.22;5067126;28;20524;-65
2023/05/26 04:43:58;;;;;;;18.30;4.57;;;;;;;9.38;100.00;103283.66;5062958;28;21012;-65
2023/05/26 04:46:24;;;;;;;18.77;5.43;;;;;;;8.91;100.00;103184.16;5062958;28;20441;-65
2023/05/26 04:48:49;;;;;;;19.57;4.73;;;;;;;9.66;100.00;103284.81;5065099;28;20461;-65
2023/05/26 04:51:15;;;;;;;13.60;4.80;;;;;;;9.27;100.00;103239.03;5046091;28;20285;-65
2023/05/26 04:53:40;;;;;;;19.07;5.23;;;;;;;9.78;100.00;103257.91;5066544;28;20236;-65
2023/05/26 04:56:06;;;;;;;15.47;4.50;;;;;;;9.73;100.00;103255.66;5066367;28;20233;-65
2023/05/26 04:58:36;;;;;;;19.47;5.00;;;;;;;9.40;100.00;103197.81;5046248;28;20323;-65
2023/05/26 05:01:02;;;;;;;16.53;4.93;;;;;;;9.38;100.00;103216.69;5064049;28;20611;-65
2023/05/26 05:03:29;;;;;;;12.57;4.50;;;;;;;9.71;100.00;103268.31;5061827;28;20480;-65
2023/05/26 05:05:54;;;;;;;13.00;4.10;;;;;;;9.52;100.00;103242.31;5064765;28;20491;-65
2023/05/26 05:08:20;;;;;;;19.60;5.27;;;;;;;10.21;100.00;103300.56;5062424;28;20473;-65
2023/05/26 05:10:45;;;;;;;14.23;4.37;;;;;;;10.03;100.00;103302.19;5066252;28;20211;-65
2023/05/26 05:13:11;;;;;;;12.47;3.97;;;;;;;10.03;100.00;103305.72;5065031;28;20195;-65
2023/05/26 05:15:36;;;;;;;16.87;4.37;;;;;;;9.81;100.00;103268.41;5063316;28;20641;-65
2023/05/26 05:18:02;;;;;;;10.87;4.20;;;;;;;9.99;100.00;103320.38;5064583;28;20224;-65
2023/05/26 05:20:28;;;;;;;18.00;4.20;;;;;;;9.94;100.00;103310.06;5064982;28;20197;-65
2023/05/26 05:22:54;;;;;;;14.23;4.80;;;;;;;10.19;100.00;103334.72;5065278;28;20191;-65
2023/05/26 05:25:20;;;;;;;17.60;3.80;;;;;;;10.20;100.00;103317.63;5065144;28;20236;-65
2023/05/26 05:27:46;;;;;;;15.90;4.87;;;;;;;10.05;100.00;103306.44;5063392;28;21048;-65
2023/05/26 05:30:12;;;;;;;12.60;4.20;;;;;;;9.84;100.00;103265.44;5063825;28;20852;-65
2023/05/26 05:32:38;;;;;;;7.33;3.10;;;;;;;9.38;100.00;103175.69;5095969;22;20510;-85
2023/05/26 05:35:04;;;;;;;14.43;4.43;;;;;;;8.91;100.00;103085.13;5050171;28;20186;-85
2023/05/26 05:37:30;;;;;;;15.43;4.07;;;;;;;8.21;100.00;102947.53;5050547;28;20480;-85
2023/05/26 05:39:55;;;;;;;16.10;4.43;;;;;;;10.66;100.00;103347.59;5049716;28;20473;-86
2023/05/26 05:42:24;;;;;;;13.57;4.73;;;;;;;9.26;100.00;103091.91;5058077;28;20575;-86
2023/05/26 05:44:52;;;;;;;13.60;4.20;;;;;;;9.17;100.00;103098.91;5038791;28;20450;-85
2023/05/26 05:47:17;;;;;;;14.80;4.90;;;;;;;8.39;100.00;102990.63;5023300;28;20439;-85
2023/05/26 05:49:43;;;;;;;13.70;4.50;;;;;;;9.32;100.00;103104.75;5021973;28;20464;-86
2023/05/26 05:52:09;;;;;;;14.93;4.40;;;;;;;9.11;100.00;103099.41;5021073;28;20692;-84
2023/05/26 05:54:34;;;;;;;15.47;4.23;;;;;;;9.34;100.00;103118.81;5036703;28;20435;-85
2023/05/26 05:57:00;;;;;;;15.93;4.50;;;;;;;10.24;100.00;103275.28;5020125;28;20204;-85
2023/05/26 05:59:25;;;;;;;12.20;4.37;;;;;;;8.71;100.00;102968.28;5020045;28;20195;-86
2023/05/26 06:01:51;;;;;;;10.53;3.53;;;;;;;9.50;100.00;103113.81;5021349;28;20192;-85
2023/05/26 06:04:16;;;;;;;18.27;4.17;;;;;;;9.70;100.00;103175.53;5035341;28;20188;-85
2023/05/26 06:06:42;;;;;;;19.10;4.40;;;;;;;8.88;100.00;103018.47;5026461;28;20279;-86
2023/05/26 06:09:07;;;;;;;12.40;3.80;;;;;;;10.07;100.00;103207.94;5038938;28;20211;-86
2023/05/26 06:11:33;;;;;;;11.93;4.47;;;;;;;10.08;100.00;103172.09;5025132;28;20208;-86
2023/05/26 06:13:59;;;;;;;15.07;3.80;;;;;;;8.73;100.00;102985.00;5040622;28;20180;-85
2023/05/26 06:16:24;;;;;;;16.50;4.23;;;;;;;10.22;100.00;103219.13;5024849;28;20997;-82
2023/05/26 06:18:50;;;;;;;18.07;4.50;;;;;;;10.52;100.00;103250.41;5039487;28;20207;-84
2023/05/26 06:21:15;;;;;;;11.80;3.60;;;;;;;11.09;100.00;103325.75;5041186;28;20192;-85
2023/05/26 06:23:41;;;;;;;14.13;4.40;;;;;;;10.13;100.00;103177.03;5026330;28;20687;-84
2023/05/26 06:26:06;;;;;;;11.17;3.30;;;;;;;9.69;100.00;103088.94;5024183;28;20215;-84
2023/05/26 06:28:32;;;;;;;14.17;3.63;;;;;;;11.17;100.00;103333.94;5020806;28;20275;-85
2023/05/26 06:30:58;;;;;;;10.10;3.53;;;;;;;9.61;100.00;103059.28;5025087;28;20313;-85
2023/05/26 06:33:23;;;;;;;11.73;3.50;;;;;;;11.24;100.00;103334.22;5046830;28;20234;-85
2023/05/26 06:35:49;;;;;;;13.53;3.50;;;;;;;8.76;100.00;102897.28;5027806;28;20188;-84
2023/05/26 06:38:14;;;;;;;11.27;4.10;;;;;;;9.31;100.00;102984.34;5037638;28;20195;-84
2023/05/26 06:40:40;;;;;;;14.43;3.50;;;;;;;10.53;100.00;103187.69;5037140;28;20180;-83
2023/05/26 06:43:05;;;;;;;10.73;3.43;;;;;;;10.49;100.00;103172.00;5022998;28;20207;-84
2023/05/26 06:45:31;;;;;;;13.13;4.27;;;;;;;10.81;100.00;103228.94;5040659;28;20184;-84
2023/05/26 06:47:57;;;;;;;15.30;4.10;;;;;;;10.74;100.00;103195.59;5037872;28;20180;-84
2023/05/26 06:50:22;;;;;;;9.80;3.37;;;;;;;9.07;100.00;102894.53;5028037;28;20288;-84
2023/05/26 06:52:48;;;;;;;16.83;3.50;;;;;;;10.90;100.00;103188.78;5022510;28;20549;-83
2023/05/26 06:55:14;;;;;;;11.00;3.20;;;;;;;10.81;100.00;103188.66;5023985;28;20704;-84
2023/05/26 06:57:39;;;;;;;12.47;3.40;;;;;;;10.21;100.00;103059.16;5023814;28;20560;-85
2023/05/26 07:00:06;;;;;;;13.93;4.00;;;;;;;10.29;100.00;103053.13;5015426;28;20254;-84
2023/05/26 07:02:31;;;;;;;13.30;4.57;;;;;;;10.16;100.00;103054.25;5037319;28;20303;-83
2023/05/26 07:04:57;;;;;;;10.30;4.23;;;;;;;10.99;100.00;103158.38;5024297;28;21007;-84
2023/05/26 07:07:22;;;;;;;10.93;3.20;;;;;;;10.96;100.00;103148.78;5038446;28;20714;-84
2023/05/26 07:09:48;;;;;;;12.03;3.20;;;;;;;11.01;100.00;103138.44;5016464;28;20200;-84
2023/05/26 07:12:13;;;;;;;12.83;3.30;;;;;;;11.83;100.00;103270.41;5036476;28;20212;-84
2023/05/26 07:14:39;;;;;;;13.70;3.07;;;;;;;11.83;100.00;103284.75;5041485;28;20323;-82
2023/05/26 07:17:05;;;;;;;12.90;3.33;;;;;;;10.35;100.00;103025.72;5024556;28;20223;-82
2023/05/26 07:19:30;;;;;;;11.10;3.70;;;;;;;11.35;100.00;103177.38;5015494;28;20211;-82
2023/05/26 07:21:56;;;;;;;8.90;3.10;;;;;;;9.95;100.00;102916.78;5036443;28;20276;-82
2023/05/26 07:24:21;;;;;;;7.60;2.97;;;;;;;10.67;100.00;103054.06;5019095;28;20657;-82
2023/05/26 07:26:47;;;;;;;8.00;2.80;;;;;;;10.70;100.00;103075.22;5016122;28;20200;-82
2023/05/26 07:29:12;;;;;;;12.00;3.43;;;;;;;11.08;100.00;103152.16;5040722;28;20192;-83
2023/05/26 07:31:38;;;;;;;12.03;3.23;;;;;;;10.95;100.00;103087.19;5022634;28;20490;-83
2023/05/26 07:34:03;;;;;;;9.83;2.90;;;;;;;10.82;100.00;103047.25;5028543;28;20244;-81
2023/05/26 07:36:29;;;;;;;7.90;3.47;;;;;;;10.75;100.00;103030.00;5042234;28;20207;-82
2023/05/26 07:38:55;;;;;;;9.87;3.13;;;;;;;11.40;100.00;103121.34;5021855;28;20661;-82
2023/05/26 07:41:21;;;;;;;9.40;2.77;;;;;;;11.33;100.00;103126.47;5023233;28;20446;-82
2023/05/26 07:43:46;;;;;;;13.10;3.97;;;;;;;10.98;100.00;103074.31;5024288;28;20224;-82
2023/05/26 07:46:12;;;;;;;11.10;3.40;;;;;;;12.24;100.00;103258.38;5039489;28;20426;-82
2023/05/26 07:48:38;;;;;;;11.53;3.20;;;;;;;10.42;100.00;102949.06;5023077;28;20297;-82
2023/05/26 07:51:03;;;;;;;7.20;2.70;;;;;;;10.73;100.00;103007.84;5021830;28;20265;-83
2023/05/26 07:53:29;;;;;;;9.23;3.20;;;;;;;10.15;100.00;102894.34;5041181;28;20357;-84
2023/05/26 07:55:54;;;;;;;8.97;2.97;;;;;;;12.35;100.00;103268.06;5020772;28;20188;-82
2023/05/26 07:58:20;;;;;;;7.67;2.13;;;;;;;12.40;100.00;103255.84;5024869;28;20650;-81
2023/05/26 08:00:45;;;;;;;7.37;2.70;;;;;;;11.43;100.00;103113.00;5020047;28;20688;-82
2023/05/26 08:03:11;;;;;;;8.67;2.47;;;;;;;10.49;100.00;102949.31;5023284;28;20215;-82
2023/05/26 08:05:36;;;;;;;7.17;2.47;;;;;;;10.64;100.00;102961.25;5019673;28;20654;-82
2023/05/26 08:08:02;;;;;;;7.17;2.70;;;;;;;10.48;100.00;102900.16;5038253;28;20549;-84
2023/05/26 08:10:28;;;;;;;8.23;2.53;;;;;;;12.67;100.00;103291.81;5041835;28;20253;-83
2023/05/26 08:12:53;;;;;;;10.67;2.80;;;;;;;10.66;100.00;102915.50;5021527;28;20207;-82
2023/05/26 08:15:24;;;;;;;6.80;2.40;;;;;;;10.58;100.00;102894.75;5022789;28;20681;-83
2023/05/26 08:17:49;;;;;;;6.63;2.97;;;;;;;11.08;100.00;102937.31;5023783;28;20187;-83
2023/05/26 08:20:15;;;;;;;7.50;2.67;;;;;;;11.16;100.00;102976.81;5023999;28;20450;-83
2023/05/26 08:22:41;;;;;;;8.87;2.90;;;;;;;11.09;100.00;102960.47;5022313;28;20274;-81
2023/05/26 08:25:07;;;;;;;8.47;2.90;;;;;;;10.56;100.00;102869.94;5021121;28;20521;-82
2023/05/26 08:27:32;;;;;;;7.47;2.40;;;;;;;11.44;100.00;103024.16;5021804;28;20191;-80
2023/05/26 08:29:58;;;;;;;9.07;3.50;;;;;;;11.45;100.00;103035.75;5040377;28;20208;-82
2023/05/26 08:32:23;;;;;;;15.00;3.30;;;;;;;10.91;100.00;102951.53;5021721;28;20212;-82
2023/05/26 08:34:49;;;;;;;7.50;2.70;;;;;;;11.59;100.00;103067.50;5030854;28;20196;-83
2023/05/26 08:37:16;;;;;;;7.97;3.17;;;;;;;10.55;100.00;102863.69;5005521;28;20287;-82
2023/05/26 08:39:42;;;;;;;9.50;2.60;;;;;;;10.93;100.00;102920.00;5020830;28;20195;-82
2023/05/26 08:42:14;;;;;;;8.80;2.37;;;;;;;12.91;100.00;103223.84;5034480;28;20468;-82
2023/05/26 08:44:39;;;;;;;6.87;2.43;;;;;;;12.39;100.00;103169.88;5035442;28;20613;-82
2023/05/26 08:47:05;;;;;;;6.77;2.63;;;;;;;10.86;100.00;102882.19;5032332;28;20443;-82
2023/05/26 08:49:46;;;;;;;12.33;3.37;;;;;;;11.27;100.00;102969.41;5037922;28;20198;-82
2023/05/26 08:52:14;;;;;;;11.77;3.87;;;;;;;11.12;100.00;102895.72;5039285;28;20200;-83
2023/05/26 08:54:40;;;;;;;12.23;3.23;;;;;;;12.14;100.00;103104.22;5033575;28;20442;-82
2023/05/26 08:57:06;;;;;;;9.40;2.70;;;;;;;12.11;100.00;103115.28;5037776;28;20529;-81
2023/05/26 08:59:33;;;;;;;9.60;3.10;;;;;;;11.08;100.00;102934.63;5033096;28;20559;-82
2023/05/26 09:01:59;;;;;;;15.00;3.20;;;;;;;12.45;100.00;103142.34;5029872;28;20458;-82
2023/05/26 09:04:25;;;;;;;7.00;2.63;;;;;;;13.55;100.00;103298.13;5016394;28;20446;-82
2023/05/26 09:06:51;;;;;;;7.93;3.00;;;;;;;13.55;100.00;103287.34;5026242;28;20825;-82
2023/05/26 09:09:18;;;;;;;8.60;3.33;;;;;;;11.60;100.00;102963.50;5018011;28;20438;-83
2023/05/26 09:11:44;;;;;;;8.60;3.20;;;;;;;12.05;100.00;103032.53;5020736;28;20208;-81
2023/05/26 09:14:16;;;;;;;10.53;3.50;;;;;;;12.26;100.00;103034.88;5039093;28;20656;-81
2023/05/26 09:16:43;;;;;;;11.53;3.33;;;;;;;13.59;100.00;103246.56;5026006;28;20440;-82
2023/05/26 09:19:18;;;;;;;10.37;2.90;;;;;;;12.08;100.00;103000.78;5033685;28;20446;-80
2023/05/26 09:21:48;;;;;;;9.23;3.37;;;;;;;12.89;100.00;103150.44;5037400;28;20434;-82
2023/05/26 09:24:17;;;;;;;10.03;3.50;;;;;;;13.45;100.00;103261.47;5032371;28;20721;-80
2023/05/26 09:26:45;;;;;;;10.30;2.77;;;;;;;12.88;100.00;103138.81;5038620;28;20455;-81
2023/05/26 09:29:11;;;;;;;9.67;3.10;;;;;;;13.33;100.00;103215.91;5037008;28;20438;-81
2023/05/26 09:31:41;;;;;;;5.93;2.23;;;;;;;11.96;100.00;102975.13;5019960;28;20469;-81
2023/05/26 09:34:08;;;;;;;7.60;3.10;;;;;;;11.77;100.00;102911.56;5028183;28;20964;-80
2023/05/26 09:36:36;;;;;;;12.53;3.43;;;;;;;13.88;100.00;103305.56;5021647;28;20477;-81
2023/05/26 09:39:02;;;;;;;14.70;4.47;;;;;;;11.68;100.00;102899.06;5035513;28;20496;-81
2023/05/26 09:41:54;;;;;;;8.93;3.60;;;;;;;12.57;100.00;103009.19;5041004;28;20897;-82
2023/05/26 09:44:20;;;;;;;8.83;2.80;;;;;;;12.80;100.00;103016.72;5034328;28;20474;-82
2023/05/26 09:46:46;;;;;;;7.00;2.60;;;;;;;12.27;100.00;102951.31;5033570;28;20481;-81
2023/05/26 09:49:19;;;;;;;6.23;2.53;;;;;;;11.92;100.00;102923.50;5017771;28;20184;-81
2023/05/26 09:51:46;;;;;;;9.00;2.90;;;;;;;12.66;100.00;103059.38;5035821;28;20492;-80
2023/05/26 09:54:12;;;;;;;7.80;2.60;;;;;;;12.29;100.00;103013.03;5036276;28;20450;-81
2023/05/26 09:56:56;;;;;;;7.40;2.80;;;;;;;13.36;100.00;103131.19;5019746;28;20940;-81
2023/05/26 09:59:31;;;;;;;10.20;3.10;;;;;;;11.89;100.00;102880.78;5034132;28;20975;-82
2023/05/26 10:01:57;;;;;;;12.87;4.13;;;;;;;13.57;100.00;103161.28;5032587;28;20654;-79
2023/05/26 10:04:23;;;;;;;6.80;2.90;;;;;;;14.50;100.00;103310.72;5034611;28;20438;-81
2023/05/26 10:06:51;;;;;;;10.60;3.40;;;;;;;13.61;100.00;103153.72;5035313;28;20438;-82
2023/05/26 10:09:21;;;;;;;8.90;3.20;;;;;;;12.93;100.00;103037.81;5035062;28;20535;-82
2023/05/26 10:11:49;;;;;;;10.93;3.50;;;;;;;13.12;100.00;103067.22;5034541;28;20577;-81
2023/05/26 10:14:16;;;;;;;12.87;3.60;;;;;;;13.30;100.00;103064.47;5030583;28;20769;-81
2023/05/26 10:16:42;;;;;;;10.90;3.57;;;;;;;14.07;100.00;103221.66;5035135;28;20460;-81
2023/05/26 10:19:08;;;;;;;12.77;3.20;;;;;;;13.17;100.00;103091.00;5026163;28;20445;-80
2023/05/26 10:21:38;;;;;;;8.63;2.83;;;;;;;14.39;100.00;103287.56;5043533;28;20438;-81
2023/05/26 10:24:31;;;;;;;8.27;3.63;;;;;;;14.30;100.00;103281.28;5038128;28;20666;-81
2023/05/26 10:27:12;;;;;;;11.70;3.23;;;;;;;11.93;100.00;102908.22;5026431;28;20937;-82
2023/05/26 10:30:08;;;;;;;9.50;3.33;;;;;;;13.48;100.00;103153.31;5039235;28;20812;-82
2023/05/26 10:32:47;;;;;;;8.60;2.70;;;;;;;14.45;100.00;103279.63;5035309;28;20479;-81
2023/05/26 10:35:31;;;;;;;12.47;3.70;;;;;;;12.95;100.00;103027.72;5037058;28;20431;-82
2023/05/26 10:38:03;;;;;;;8.67;3.03;;;;;;;14.61;100.00;103270.78;5036365;28;20524;-81
2023/05/26 10:40:31;;;;;;;9.93;3.60;;;;;;;14.14;100.00;103181.34;5037415;28;20438;-81
2023/05/26 10:43:00;;;;;;;9.30;3.60;;;;;;;14.23;100.00;103210.94;5036467;28;20461;-81
2023/05/26 10:45:31;;;;;;;9.80;3.77;;;;;;;13.36;100.00;103095.31;5020194;28;20468;-81
2023/05/26 10:48:11;;;;;;;6.40;2.90;;;;;;;13.64;100.00;103093.22;5022965;28;20442;-81
2023/05/26 10:50:54;;;;;;;9.90;3.50;;;;;;;14.94;100.00;103248.31;5018910;28;20972;-81
2023/05/26 10:53:27;;;;;;;15.00;3.47;;;;;;;13.57;100.00;103060.69;5038116;28;20469;-81
2023/05/26 10:55:55;;;;;;;8.10;3.50;;;;;;;14.95;100.00;103277.03;5038583;28;20445;-81
2023/05/26 10:58:27;;;;;;;16.63;3.97;;;;;;;14.83;100.00;103250.34;5026693;28;20533;-81
2023/05/26 11:01:02;;;;;;;14.50;3.60;;;;;;;14.41;100.00;103175.69;5041164;28;20430;-82
2023/05/26 11:03:36;;;;;;;8.83;2.93;;;;;;;13.98;100.00;103123.66;5039853;28;21019;-81
2023/05/26 11:06:03;;;;;;;14.83;3.57;;;;;;;14.21;100.00;103163.50;5040855;28;20818;-80
2023/05/26 11:08:35;;;;;;;7.90;3.23;;;;;;;14.14;100.00;103157.06;5023422;28;20439;-82
2023/05/26 11:11:04;;;;;;;8.60;3.67;;;;;;;13.96;100.00;103131.06;5041477;28;20908;-82
2023/05/26 11:13:49;;;;;;;16.53;4.40;;;;;;;14.63;100.00;103230.91;5039960;28;20467;-80
2023/05/26 11:16:25;;;;;;;12.50;3.83;;;;;;;14.71;100.00;103224.69;5031665;28;20458;-80